sensor_id;sensor_type;location;lat;lon;timestamp;temperature;humidity
45066;DHT22;30830;53.704;10.004;2023-03-01T00:01:08;-1.90;99.90
45066;DHT22;30830;53.704;10.004;2023-03-01T00:03:35;-2.00;99.90
45066;DHT22;30830;53.704;10.004;2023-03-01T00:06:02;-2.00;99.90
45066;DHT22;30830;53.704;10.004;2023-03-01T00:08:28;-2.00;99.90
45066;DHT22;30830;53.704;10.004;2023-03-01T00:11:07;-2.00;99.90
45066;DHT22;30830;53.704;10.004;2023-03-01T00:13:34;-2.00;99.90
45066;DHT22;30830;53.704;10.004;2023-03-01T00:16:06;-2.00;99.90
45066;DHT22;30830;53.704;10.004;2023-03-01T00:18:32;-2.00;99.90
45066;DHT22;30830;53.704;10.004;2023-03-01T00:20:58;-2.10;99.90
45066;DHT22;30830;53.704;10.004;2023-03-01T00:23:24;-2.10;99.90
45066;DHT22;30830;53.704;10.004;2023-03-01T00:25:50;-2.10;99.90
45066;DHT22;30830;53.704;10.004;2023-03-01T00:28:16;-2.10;99.90
45066;DHT22;30830;53.704;10.004;2023-03-01T00:30:41;-2.10;99.90
45066;DHT22;30830;53.704;10.004;2023-03-01T00:33:07;-2.10;99.90
45066;DHT22;30830;53.704;10.004;2023-03-01T00:35:33;-2.10;99.90
45066;DHT22;30830;53.704;10.004;2023-03-01T00:37:59;-2.10;99.90
45066;DHT22;30830;53.704;10.004;2023-03-01T00:40:26;-2.10;99.90
45066;DHT22;30830;53.704;10.004;2023-03-01T00:42:52;-2.10;99.90
45066;DHT22;30830;53.704;10.004;2023-03-01T00:45:18;-2.10;99.90
45066;DHT22;30830;53.704;10.004;2023-03-01T00:47:44;-2.10;99.90
45066;DHT22;30830;53.704;10.004;2023-03-01T00:50:10;-2.10;99.90
45066;DHT22;30830;53.704;10.004;2023-03-01T00:52:36;-2.20;99.90
45066;DHT22;30830;53.704;10.004;2023-03-01T00:55:03;-2.20;99.90
45066;DHT22;30830;53.704;10.004;2023-03-01T00:57:29;-2.20;99.90
45066;DHT22;30830;53.704;10.004;2023-03-01T00:59:54;-2.20;99.90
45066;DHT22;30830;53.704;10.004;2023-03-01T01:02:20;-2.20;99.90
45066;DHT22;30830;53.704;10.004;2023-03-01T01:04:46;-2.20;99.90
45066;DHT22;30830;53.704;10.004;2023-03-01T01:07:11;-2.20;99.90
45066;DHT22;30830;53.704;10.004;2023-03-01T01:09:37;-2.30;99.90
45066;DHT22;30830;53.704;10.004;2023-03-01T01:12:03;-2.20;99.90
45066;DHT22;30830;53.704;10.004;2023-03-01T01:14:28;-2.30;99.90
45066;DHT22;30830;53.704;10.004;2023-03-01T01:16:54;-2.30;99.90
45066;DHT22;30830;53.704;10.004;2023-03-01T01:19:20;-2.30;99.90
45066;DHT22;30830;53.704;10.004;2023-03-01T01:21:46;-2.30;99.90
45066;DHT22;30830;53.704;10.004;2023-03-01T01:24:14;-2.30;99.90
45066;DHT22;30830;53.704;10.004;2023-03-01T01:26:40;-2.40;99.90
45066;DHT22;30830;53.704;10.004;2023-03-01T01:29:06;-2.40;99.90
45066;DHT22;30830;53.704;10.004;2023-03-01T01:31:33;-2.40;99.90
45066;DHT22;30830;53.704;10.004;2023-03-01T01:34:01;-2.40;99.90
45066;DHT22;30830;53.704;10.004;2023-03-01T01:36:27;-2.40;99.90
45066;DHT22;30830;53.704;10.004;2023-03-01T01:38:53;-2.40;99.90
45066;DHT22;30830;53.704;10.004;2023-03-01T01:41:19;-2.40;99.90
45066;DHT22;30830;53.704;10.004;2023-03-01T01:43:48;-2.40;99.90
45066;DHT22;30830;53.704;10.004;2023-03-01T01:46:31;-2.40;99.90
45066;DHT22;30830;53.704;10.004;2023-03-01T01:49:02;-2.50;99.90
45066;DHT22;30830;53.704;10.004;2023-03-01T01:51:32;-2.50;99.90
45066;DHT22;30830;53.704;10.004;2023-03-01T01:54:10;-2.50;99.90
45066;DHT22;30830;53.704;10.004;2023-03-01T01:56:37;-2.50;99.90
45066;DHT22;30830;53.704;10.004;2023-03-01T01:59:04;-2.50;99.90
45066;DHT22;30830;53.704;10.004;2023-03-01T02:01:30;-2.50;99.90
45066;DHT22;30830;53.704;10.004;2023-03-01T02:03:55;-2.50;99.90
45066;DHT22;30830;53.704;10.004;2023-03-01T02:06:38;-2.50;99.90
45066;DHT22;30830;53.704;10.004;2023-03-01T02:09:08;-2.50;99.90
45066;DHT22;30830;53.704;10.004;2023-03-01T02:11:36;-2.50;99.90
45066;DHT22;30830;53.704;10.004;2023-03-01T02:14:03;-2.50;99.90
45066;DHT22;30830;53.704;10.004;2023-03-01T02:16:30;-2.50;99.90
45066;DHT22;30830;53.704;10.004;2023-03-01T02:18:56;-2.50;99.90
45066;DHT22;30830;53.704;10.004;2023-03-01T02:27:17;-2.50;99.90
45066;DHT22;30830;53.704;10.004;2023-03-01T02:29:47;-2.60;99.90
45066;DHT22;30830;53.704;10.004;2023-03-01T02:32:14;-2.60;99.90
45066;DHT22;30830;53.704;10.004;2023-03-01T02:34:40;-2.60;99.90
45066;DHT22;30830;53.704;10.004;2023-03-01T02:37:13;-2.60;99.90
45066;DHT22;30830;53.704;10.004;2023-03-01T02:39:43;-2.60;99.90
45066;DHT22;30830;53.704;10.004;2023-03-01T02:42:13;-2.60;99.90
45066;DHT22;30830;53.704;10.004;2023-03-01T02:44:40;-2.70;99.90
45066;DHT22;30830;53.704;10.004;2023-03-01T02:47:05;-2.70;99.90
45066;DHT22;30830;53.704;10.004;2023-03-01T02:49:33;-2.70;99.90
45066;DHT22;30830;53.704;10.004;2023-03-01T02:52:37;-2.70;99.90
45066;DHT22;30830;53.704;10.004;2023-03-01T02:55:13;-2.70;99.90
45066;DHT22;30830;53.704;10.004;2023-03-01T02:57:43;-2.80;99.90
45066;DHT22;30830;53.704;10.004;2023-03-01T03:00:12;-2.80;99.90
45066;DHT22;30830;53.704;10.004;2023-03-01T03:02:45;-2.80;99.90
45066;DHT22;30830;53.704;10.004;2023-03-01T03:05:14;-2.80;99.90
45066;DHT22;30830;53.704;10.004;2023-03-01T03:07:42;-2.80;99.90
45066;DHT22;30830;53.704;10.004;2023-03-01T03:10:19;-2.80;99.90
45066;DHT22;30830;53.704;10.004;2023-03-01T03:12:48;-2.80;99.90
45066;DHT22;30830;53.704;10.004;2023-03-01T03:15:14;-2.80;99.90
45066;DHT22;30830;53.704;10.004;2023-03-01T03:17:41;-2.80;99.90
45066;DHT22;30830;53.704;10.004;2023-03-01T03:20:09;-2.80;99.90
45066;DHT22;30830;53.704;10.004;2023-03-01T03:22:41;-2.80;99.90
45066;DHT22;30830;53.704;10.004;2023-03-01T03:25:07;-2.80;99.90
45066;DHT22;30830;53.704;10.004;2023-03-01T03:27:40;-2.70;99.90
45066;DHT22;30830;53.704;10.004;2023-03-01T03:30:07;-2.70;99.90
45066;DHT22;30830;53.704;10.004;2023-03-01T03:32:37;-2.70;99.90
45066;DHT22;30830;53.704;10.004;2023-03-01T03:35:04;-2.70;99.90
45066;DHT22;30830;53.704;10.004;2023-03-01T03:37:39;-2.60;99.90
45066;DHT22;30830;53.704;10.004;2023-03-01T03:40:24;-2.60;99.90
45066;DHT22;30830;53.704;10.004;2023-03-01T03:42:49;-2.50;99.90
45066;DHT22;30830;53.704;10.004;2023-03-01T03:45:16;-2.50;99.90
45066;DHT22;30830;53.704;10.004;2023-03-01T03:47:42;-2.40;99.90
45066;DHT22;30830;53.704;10.004;2023-03-01T03:50:09;-2.40;99.90
45066;DHT22;30830;53.704;10.004;2023-03-01T03:52:35;-2.40;99.90
45066;DHT22;30830;53.704;10.004;2023-03-01T03:55:01;-2.40;99.90
45066;DHT22;30830;53.704;10.004;2023-03-01T03:57:26;-2.40;99.90
45066;DHT22;30830;53.704;10.004;2023-03-01T03:59:52;-2.40;99.90
45066;DHT22;30830;53.704;10.004;2023-03-01T04:02:17;-2.40;99.90
45066;DHT22;30830;53.704;10.004;2023-03-01T04:04:48;-2.40;99.90
45066;DHT22;30830;53.704;10.004;2023-03-01T04:07:15;-2.40;99.90
45066;DHT22;30830;53.704;10.004;2023-03-01T04:09:41;-2.30;99.90
45066;DHT22;30830;53.704;10.004;2023-03-01T04:12:08;-2.30;99.90
45066;DHT22;30830;53.704;10.004;2023-03-01T04:14:34;-2.40;99.90
45066;DHT22;30830;53.704;10.004;2023-03-01T04:16:59;-2.40;99.90
45066;DHT22;30830;53.704;10.004;2023-03-01T04:19:25;-2.30;99.90
45066;DHT22;30830;53.704;10.004;2023-03-01T04:21:52;-2.30;99.90
45066;DHT22;30830;53.704;10.004;2023-03-01T04:24:18;-2.30;99.90
45066;DHT22;30830;53.704;10.004;2023-03-01T04:26:43;-2.30;99.90
45066;DHT22;30830;53.704;10.004;2023-03-01T04:29:09;-2.30;99.90
45066;DHT22;30830;53.704;10.004;2023-03-01T04:31:34;-2.20;99.90
45066;DHT22;30830;53.704;10.004;2023-03-01T04:34:00;-2.20;99.90
45066;DHT22;30830;53.704;10.004;2023-03-01T04:36:27;-2.20;99.90
45066;DHT22;30830;53.704;10.004;2023-03-01T04:38:53;-2.20;99.90
45066;DHT22;30830;53.704;10.004;2023-03-01T04:41:21;-2.10;99.90
45066;DHT22;30830;53.704;10.004;2023-03-01T04:43:47;-2.10;99.90
45066;DHT22;30830;53.704;10.004;2023-03-01T04:46:16;-2.10;99.90
45066;DHT22;30830;53.704;10.004;2023-03-01T04:48:43;-2.10;99.90
45066;DHT22;30830;53.704;10.004;2023-03-01T04:51:10;-2.00;99.90
45066;DHT22;30830;53.704;10.004;2023-03-01T04:53:39;-2.00;99.90
45066;DHT22;30830;53.704;10.004;2023-03-01T04:56:05;-2.00;99.90
45066;DHT22;30830;53.704;10.004;2023-03-01T04:58:32;-1.90;99.90
45066;DHT22;30830;53.704;10.004;2023-03-01T05:00:57;-1.90;99.90
45066;DHT22;30830;53.704;10.004;2023-03-01T05:03:23;-1.90;99.90
45066;DHT22;30830;53.704;10.004;2023-03-01T05:05:51;-1.80;99.90
45066;DHT22;30830;53.704;10.004;2023-03-01T05:08:17;-1.80;99.90
45066;DHT22;30830;53.704;10.004;2023-03-01T05:10:51;-1.80;99.90
45066;DHT22;30830;53.704;10.004;2023-03-01T05:13:17;-1.80;99.90
45066;DHT22;30830;53.704;10.004;2023-03-01T05:15:57;-1.80;99.90
45066;DHT22;30830;53.704;10.004;2023-03-01T05:18:24;-1.70;99.90
45066;DHT22;30830;53.704;10.004;2023-03-01T05:20:53;-1.70;99.90
45066;DHT22;30830;53.704;10.004;2023-03-01T05:23:22;-1.70;99.90
45066;DHT22;30830;53.704;10.004;2023-03-01T05:25:48;-1.70;99.90
45066;DHT22;30830;53.704;10.004;2023-03-01T05:28:15;-1.60;99.90
45066;DHT22;30830;53.704;10.004;2023-03-01T05:30:40;-1.60;99.90
45066;DHT22;30830;53.704;10.004;2023-03-01T05:33:06;-1.60;99.90
45066;DHT22;30830;53.704;10.004;2023-03-01T05:35:39;-1.60;99.90
45066;DHT22;30830;53.704;10.004;2023-03-01T05:38:06;-1.60;99.90
45066;DHT22;30830;53.704;10.004;2023-03-01T05:40:33;-1.50;99.90
45066;DHT22;30830;53.704;10.004;2023-03-01T05:42:59;-1.50;99.90
45066;DHT22;30830;53.704;10.004;2023-03-01T05:45:26;-1.50;99.90
45066;DHT22;30830;53.704;10.004;2023-03-01T05:47:52;-1.50;99.90
45066;DHT22;30830;53.704;10.004;2023-03-01T05:50:23;-1.50;99.90
45066;DHT22;30830;53.704;10.004;2023-03-01T05:52:54;-1.50;99.90
45066;DHT22;30830;53.704;10.004;2023-03-01T05:55:22;-1.50;99.90
45066;DHT22;30830;53.704;10.004;2023-03-01T05:57:48;-1.50;99.90
45066;DHT22;30830;53.704;10.004;2023-03-01T06:00:15;-1.50;99.90
45066;DHT22;30830;53.704;10.004;2023-03-01T06:02:41;-1.60;99.90
45066;DHT22;30830;53.704;10.004;2023-03-01T06:05:08;-1.60;99.90
45066;DHT22;30830;53.704;10.004;2023-03-01T06:07:34;-1.50;99.90
45066;DHT22;30830;53.704;10.004;2023-03-01T06:10:00;-1.60;99.90
45066;DHT22;30830;53.704;10.004;2023-03-01T06:12:27;-1.60;99.90
45066;DHT22;30830;53.704;10.004;2023-03-01T06:14:55;-1.60;99.90
45066;DHT22;30830;53.704;10.004;2023-03-01T06:17:21;-1.60;99.90
45066;DHT22;30830;53.704;10.004;2023-03-01T06:19:46;-1.60;99.90
45066;DHT22;30830;53.704;10.004;2023-03-01T06:22:12;-1.60;99.90
45066;DHT22;30830;53.704;10.004;2023-03-01T06:24:38;-1.60;99.90
45066;DHT22;30830;53.704;10.004;2023-03-01T06:27:04;-1.60;99.90
45066;DHT22;30830;53.704;10.004;2023-03-01T06:29:29;-1.60;99.90
45066;DHT22;30830;53.704;10.004;2023-03-01T06:31:55;-1.60;99.90
45066;DHT22;30830;53.704;10.004;2023-03-01T06:34:21;-1.60;99.90
45066;DHT22;30830;53.704;10.004;2023-03-01T06:36:47;-1.60;99.90
45066;DHT22;30830;53.704;10.004;2023-03-01T06:39:12;-1.60;99.90
45066;DHT22;30830;53.704;10.004;2023-03-01T06:41:38;-1.60;99.90
45066;DHT22;30830;53.704;10.004;2023-03-01T06:44:03;-1.50;99.90
45066;DHT22;30830;53.704;10.004;2023-03-01T06:46:29;-1.50;99.90
45066;DHT22;30830;53.704;10.004;2023-03-01T06:48:54;-1.40;99.90
45066;DHT22;30830;53.704;10.004;2023-03-01T06:51:20;-1.40;99.90
45066;DHT22;30830;53.704;10.004;2023-03-01T06:53:46;-1.40;99.90
45066;DHT22;30830;53.704;10.004;2023-03-01T06:56:11;-1.40;99.90
45066;DHT22;30830;53.704;10.004;2023-03-01T06:58:37;-1.30;99.90
45066;DHT22;30830;53.704;10.004;2023-03-01T07:01:09;-1.30;99.90
45066;DHT22;30830;53.704;10.004;2023-03-01T07:03:35;-1.20;99.90
45066;DHT22;30830;53.704;10.004;2023-03-01T07:06:00;-1.20;99.90
45066;DHT22;30830;53.704;10.004;2023-03-01T07:08:26;-1.10;99.90
45066;DHT22;30830;53.704;10.004;2023-03-01T07:10:56;-1.10;99.90
45066;DHT22;30830;53.704;10.004;2023-03-01T07:13:22;-1.00;99.90
45066;DHT22;30830;53.704;10.004;2023-03-01T07:15:47;-1.00;99.90
45066;DHT22;30830;53.704;10.004;2023-03-01T07:18:13;-0.90;99.90
45066;DHT22;30830;53.704;10.004;2023-03-01T07:20:38;-0.90;99.90
45066;DHT22;30830;53.704;10.004;2023-03-01T07:23:05;-0.80;99.90
45066;DHT22;30830;53.704;10.004;2023-03-01T07:25:31;-0.70;99.90
45066;DHT22;30830;53.704;10.004;2023-03-01T07:27:57;-0.70;99.90
45066;DHT22;30830;53.704;10.004;2023-03-01T07:30:23;-0.60;99.90
45066;DHT22;30830;53.704;10.004;2023-03-01T07:32:51;-0.60;99.90
45066;DHT22;30830;53.704;10.004;2023-03-01T07:35:17;-0.50;99.90
45066;DHT22;30830;53.704;10.004;2023-03-01T07:37:43;-0.30;99.90
45066;DHT22;30830;53.704;10.004;2023-03-01T07:40:10;-0.20;99.90
45066;DHT22;30830;53.704;10.004;2023-03-01T07:42:37;-0.10;99.90
45066;DHT22;30830;53.704;10.004;2023-03-01T07:45:06;0.00;99.90
45066;DHT22;30830;53.704;10.004;2023-03-01T07:47:31;0.10;99.90
45066;DHT22;30830;53.704;10.004;2023-03-01T07:49:57;0.10;99.90
45066;DHT22;30830;53.704;10.004;2023-03-01T07:52:23;0.10;99.90
45066;DHT22;30830;53.704;10.004;2023-03-01T07:54:48;0.20;99.90
45066;DHT22;30830;53.704;10.004;2023-03-01T07:57:14;0.30;99.90
45066;DHT22;30830;53.704;10.004;2023-03-01T07:59:39;0.40;99.90
45066;DHT22;30830;53.704;10.004;2023-03-01T08:02:05;0.40;99.90
45066;DHT22;30830;53.704;10.004;2023-03-01T08:04:32;0.50;99.90
45066;DHT22;30830;53.704;10.004;2023-03-01T08:06:58;0.50;99.90
45066;DHT22;30830;53.704;10.004;2023-03-01T08:09:24;0.60;99.90
45066;DHT22;30830;53.704;10.004;2023-03-01T08:11:50;0.70;99.90
45066;DHT22;30830;53.704;10.004;2023-03-01T08:14:15;0.70;99.90
45066;DHT22;30830;53.704;10.004;2023-03-01T08:16:41;0.70;99.90
45066;DHT22;30830;53.704;10.004;2023-03-01T08:19:08;0.80;99.90
45066;DHT22;30830;53.704;10.004;2023-03-01T08:21:34;0.80;99.90
45066;DHT22;30830;53.704;10.004;2023-03-01T08:24:01;0.80;99.90
45066;DHT22;30830;53.704;10.004;2023-03-01T08:26:27;0.90;99.90
45066;DHT22;30830;53.704;10.004;2023-03-01T08:28:52;1.10;99.90
45066;DHT22;30830;53.704;10.004;2023-03-01T08:31:25;1.20;99.90
45066;DHT22;30830;53.704;10.004;2023-03-01T08:33:54;1.30;99.90
45066;DHT22;30830;53.704;10.004;2023-03-01T08:36:24;1.40;99.90
45066;DHT22;30830;53.704;10.004;2023-03-01T08:38:50;1.50;99.90
45066;DHT22;30830;53.704;10.004;2023-03-01T08:41:16;1.60;99.90
45066;DHT22;30830;53.704;10.004;2023-03-01T08:43:41;1.70;99.90
45066;DHT22;30830;53.704;10.004;2023-03-01T08:46:07;1.80;99.90
45066;DHT22;30830;53.704;10.004;2023-03-01T08:48:33;2.00;99.90
45066;DHT22;30830;53.704;10.004;2023-03-01T08:51:11;2.10;99.90
45066;DHT22;30830;53.704;10.004;2023-03-01T08:53:38;2.10;99.90
45066;DHT22;30830;53.704;10.004;2023-03-01T08:56:04;2.20;99.90
45066;DHT22;30830;53.704;10.004;2023-03-01T08:58:30;2.30;99.90
45066;DHT22;30830;53.704;10.004;2023-03-01T09:00:56;2.40;99.90
45066;DHT22;30830;53.704;10.004;2023-03-01T09:03:22;2.50;99.90
45066;DHT22;30830;53.704;10.004;2023-03-01T09:05:48;2.60;99.90
45066;DHT22;30830;53.704;10.004;2023-03-01T09:08:18;2.60;99.90
45066;DHT22;30830;53.704;10.004;2023-03-01T09:10:44;2.70;99.90
45066;DHT22;30830;53.704;10.004;2023-03-01T09:13:10;2.80;99.90
45066;DHT22;30830;53.704;10.004;2023-03-01T09:15:39;2.70;99.90
45066;DHT22;30830;53.704;10.004;2023-03-01T09:18:05;2.70;99.90
45066;DHT22;30830;53.704;10.004;2023-03-01T09:20:31;2.70;99.90
45066;DHT22;30830;53.704;10.004;2023-03-01T09:22:57;2.70;99.90
45066;DHT22;30830;53.704;10.004;2023-03-01T09:25:23;2.70;99.90
45066;DHT22;30830;53.704;10.004;2023-03-01T09:27:51;2.60;99.90
45066;DHT22;30830;53.704;10.004;2023-03-01T09:30:17;2.60;99.90
45066;DHT22;30830;53.704;10.004;2023-03-01T09:32:43;2.60;99.90
45066;DHT22;30830;53.704;10.004;2023-03-01T09:35:11;2.60;99.90
45066;DHT22;30830;53.704;10.004;2023-03-01T09:37:36;2.60;99.90
45066;DHT22;30830;53.704;10.004;2023-03-01T09:40:05;2.60;99.90
45066;DHT22;30830;53.704;10.004;2023-03-01T09:42:34;2.60;99.90
45066;DHT22;30830;53.704;10.004;2023-03-01T09:45:11;2.70;99.90
45066;DHT22;30830;53.704;10.004;2023-03-01T09:47:40;2.80;99.90
45066;DHT22;30830;53.704;10.004;2023-03-01T09:50:14;3.00;99.90
45066;DHT22;30830;53.704;10.004;2023-03-01T09:55:31;3.10;99.90
45066;DHT22;30830;53.704;10.004;2023-03-01T10:00:47;3.30;99.90
45066;DHT22;30830;53.704;10.004;2023-03-01T10:03:25;3.40;99.90
45066;DHT22;30830;53.704;10.004;2023-03-01T10:11:20;3.40;99.90
45066;DHT22;30830;53.704;10.004;2023-03-01T10:13:48;3.40;99.90
45066;DHT22;30830;53.704;10.004;2023-03-01T10:19:06;3.40;99.90
45066;DHT22;30830;53.704;10.004;2023-03-01T10:21:41;3.40;99.90
45066;DHT22;30830;53.704;10.004;2023-03-01T10:24:14;3.50;99.90
45066;DHT22;30830;53.704;10.004;2023-03-01T10:29:23;3.60;99.90
45066;DHT22;30830;53.704;10.004;2023-03-01T10:31:52;3.60;99.90
45066;DHT22;30830;53.704;10.004;2023-03-01T10:37:16;3.70;99.90
45066;DHT22;30830;53.704;10.004;2023-03-01T10:40:06;3.80;99.90
45066;DHT22;30830;53.704;10.004;2023-03-01T10:42:57;3.80;99.90
45066;DHT22;30830;53.704;10.004;2023-03-01T10:50:50;4.00;99.90
45066;DHT22;30830;53.704;10.004;2023-03-01T10:53:32;4.10;99.90
45066;DHT22;30830;53.704;10.004;2023-03-01T10:58:33;4.10;99.90
45066;DHT22;30830;53.704;10.004;2023-03-01T11:01:02;4.20;99.90
45066;DHT22;30830;53.704;10.004;2023-03-01T11:03:38;4.20;99.90
45066;DHT22;30830;53.704;10.004;2023-03-01T11:06:05;4.30;99.90
45066;DHT22;30830;53.704;10.004;2023-03-01T11:13:47;4.30;99.90
45066;DHT22;30830;53.704;10.004;2023-03-01T11:16:14;4.30;99.90
45066;DHT22;30830;53.704;10.004;2023-03-01T11:18:40;4.40;99.90
45066;DHT22;30830;53.704;10.004;2023-03-01T11:21:06;4.40;99.90
45066;DHT22;30830;53.704;10.004;2023-03-01T11:23:34;4.50;99.90
45066;DHT22;30830;53.704;10.004;2023-03-01T11:26:05;4.40;99.90
45066;DHT22;30830;53.704;10.004;2023-03-01T11:28:33;4.30;99.90
45066;DHT22;30830;53.704;10.004;2023-03-01T11:31:10;4.40;99.90
45066;DHT22;30830;53.704;10.004;2023-03-01T11:33:44;4.40;99.90
45066;DHT22;30830;53.704;10.004;2023-03-01T11:36:35;4.50;99.90
45066;DHT22;30830;53.704;10.004;2023-03-01T11:41:43;4.40;99.90
45066;DHT22;30830;53.704;10.004;2023-03-01T11:44:20;4.50;99.90
45066;DHT22;30830;53.704;10.004;2023-03-01T12:01:24;4.90;99.90
45066;DHT22;30830;53.704;10.004;2023-03-01T12:07:05;5.00;99.90
45066;DHT22;30830;53.704;10.004;2023-03-01T12:18:23;5.00;99.90
45066;DHT22;30830;53.704;10.004;2023-03-01T12:21:23;5.10;99.90
45066;DHT22;30830;53.704;10.004;2023-03-01T12:24:27;5.20;99.90
45066;DHT22;30830;53.704;10.004;2023-03-01T12:30:33;5.20;99.90
45066;DHT22;30830;53.704;10.004;2023-03-01T12:36:10;5.40;99.90
45066;DHT22;30830;53.704;10.004;2023-03-01T12:39:07;5.40;99.90
45066;DHT22;30830;53.704;10.004;2023-03-01T12:49:49;5.60;99.90
45066;DHT22;30830;53.704;10.004;2023-03-01T12:52:22;5.70;99.90
45066;DHT22;30830;53.704;10.004;2023-03-01T12:54:51;5.80;99.90
45066;DHT22;30830;53.704;10.004;2023-03-01T12:57:29;5.70;99.90
45066;DHT22;30830;53.704;10.004;2023-03-01T13:03:06;5.80;99.90
45066;DHT22;30830;53.704;10.004;2023-03-01T13:05:45;5.80;99.90
45066;DHT22;30830;53.704;10.004;2023-03-01T13:08:20;5.90;99.90
45066;DHT22;30830;53.704;10.004;2023-03-01T13:10:58;5.90;99.90
45066;DHT22;30830;53.704;10.004;2023-03-01T13:13:26;6.00;99.90
45066;DHT22;30830;53.704;10.004;2023-03-01T13:15:54;6.00;99.90
45066;DHT22;30830;53.704;10.004;2023-03-01T13:20:49;6.00;99.90
45066;DHT22;30830;53.704;10.004;2023-03-01T13:33:51;6.20;99.90
45066;DHT22;30830;53.704;10.004;2023-03-01T13:38:56;6.30;99.90
45066;DHT22;30830;53.704;10.004;2023-03-01T13:44:33;6.30;99.90
45066;DHT22;30830;53.704;10.004;2023-03-01T13:54:56;6.30;99.90
45066;DHT22;30830;53.704;10.004;2023-03-01T13:57:26;6.30;99.90
45066;DHT22;30830;53.704;10.004;2023-03-01T13:59:54;6.30;99.90
45066;DHT22;30830;53.704;10.004;2023-03-01T14:02:19;6.30;99.90
45066;DHT22;30830;53.704;10.004;2023-03-01T14:04:59;6.30;99.90
45066;DHT22;30830;53.704;10.004;2023-03-01T14:07:26;6.40;99.90
45066;DHT22;30830;53.704;10.004;2023-03-01T14:10:05;6.40;99.90
45066;DHT22;30830;53.704;10.004;2023-03-01T14:12:51;6.50;99.90
45066;DHT22;30830;53.704;10.004;2023-03-01T14:15:25;6.40;99.90
45066;DHT22;30830;53.704;10.004;2023-03-01T14:20:23;6.50;99.90
45066;DHT22;30830;53.704;10.004;2023-03-01T14:22:55;6.50;99.90
45066;DHT22;30830;53.704;10.004;2023-03-01T14:25:31;6.60;99.90
45066;DHT22;30830;53.704;10.004;2023-03-01T14:28:17;6.60;99.90
45066;DHT22;30830;53.704;10.004;2023-03-01T14:30:44;6.60;99.90
45066;DHT22;30830;53.704;10.004;2023-03-01T14:33:23;6.60;99.90
45066;DHT22;30830;53.704;10.004;2023-03-01T14:36:06;6.60;99.90
45066;DHT22;30830;53.704;10.004;2023-03-01T14:38:42;6.50;99.90
45066;DHT22;30830;53.704;10.004;2023-03-01T14:41:14;6.50;99.90
45066;DHT22;30830;53.704;10.004;2023-03-01T14:43:44;6.50;99.90
45066;DHT22;30830;53.704;10.004;2023-03-01T14:46:21;6.50;99.90
45066;DHT22;30830;53.704;10.004;2023-03-01T14:48:50;6.40;99.90
45066;DHT22;30830;53.704;10.004;2023-03-01T14:51:16;6.40;99.90
45066;DHT22;30830;53.704;10.004;2023-03-01T14:53:42;6.50;99.90
45066;DHT22;30830;53.704;10.004;2023-03-01T14:56:14;6.50;99.90
45066;DHT22;30830;53.704;10.004;2023-03-01T14:58:41;6.50;99.90
45066;DHT22;30830;53.704;10.004;2023-03-01T15:01:07;6.40;99.90
45066;DHT22;30830;53.704;10.004;2023-03-01T15:03:41;6.40;99.90
45066;DHT22;30830;53.704;10.004;2023-03-01T15:06:09;6.40;99.90
45066;DHT22;30830;53.704;10.004;2023-03-01T15:08:37;6.40;99.90
45066;DHT22;30830;53.704;10.004;2023-03-01T15:11:22;6.40;99.90
45066;DHT22;30830;53.704;10.004;2023-03-01T15:13:50;6.40;99.90
45066;DHT22;30830;53.704;10.004;2023-03-01T15:16:23;6.40;99.90
45066;DHT22;30830;53.704;10.004;2023-03-01T15:18:54;6.40;99.90
45066;DHT22;30830;53.704;10.004;2023-03-01T15:21:27;6.30;99.90
45066;DHT22;30830;53.704;10.004;2023-03-01T15:26:39;6.30;99.90
45066;DHT22;30830;53.704;10.004;2023-03-01T15:29:18;6.30;99.90
45066;DHT22;30830;53.704;10.004;2023-03-01T15:31:58;6.20;99.90
45066;DHT22;30830;53.704;10.004;2023-03-01T15:36:57;6.20;99.90
45066;DHT22;30830;53.704;10.004;2023-03-01T15:41:53;6.00;99.90
45066;DHT22;30830;53.704;10.004;2023-03-01T15:44:33;6.00;99.90
45066;DHT22;30830;53.704;10.004;2023-03-01T15:46:59;5.90;99.90
45066;DHT22;30830;53.704;10.004;2023-03-01T15:49:42;5.90;99.90
45066;DHT22;30830;53.704;10.004;2023-03-01T15:52:35;5.90;99.90
45066;DHT22;30830;53.704;10.004;2023-03-01T15:55:14;5.80;99.90
45066;DHT22;30830;53.704;10.004;2023-03-01T15:57:40;5.80;99.90
45066;DHT22;30830;53.704;10.004;2023-03-01T16:00:08;5.70;99.90
45066;DHT22;30830;53.704;10.004;2023-03-01T16:02:37;5.70;99.90
45066;DHT22;30830;53.704;10.004;2023-03-01T16:05:03;5.70;99.90
45066;DHT22;30830;53.704;10.004;2023-03-01T16:07:29;5.60;99.90
45066;DHT22;30830;53.704;10.004;2023-03-01T16:09:56;5.60;99.90
45066;DHT22;30830;53.704;10.004;2023-03-01T16:12:22;5.60;99.90
45066;DHT22;30830;53.704;10.004;2023-03-01T16:14:49;5.50;99.90
45066;DHT22;30830;53.704;10.004;2023-03-01T16:17:15;5.50;99.90
45066;DHT22;30830;53.704;10.004;2023-03-01T16:19:41;5.40;99.90
45066;DHT22;30830;53.704;10.004;2023-03-01T16:22:09;5.40;99.90
45066;DHT22;30830;53.704;10.004;2023-03-01T16:24:35;5.30;99.90
45066;DHT22;30830;53.704;10.004;2023-03-01T16:27:01;5.20;99.90
45066;DHT22;30830;53.704;10.004;2023-03-01T16:29:27;5.20;99.90
45066;DHT22;30830;53.704;10.004;2023-03-01T16:31:54;5.10;99.90
45066;DHT22;30830;53.704;10.004;2023-03-01T16:34:22;5.10;99.90
45066;DHT22;30830;53.704;10.004;2023-03-01T16:36:48;5.00;99.90
45066;DHT22;30830;53.704;10.004;2023-03-01T16:39:14;5.00;99.90
45066;DHT22;30830;53.704;10.004;2023-03-01T16:41:39;4.90;99.90
45066;DHT22;30830;53.704;10.004;2023-03-01T16:44:05;4.90;99.90
45066;DHT22;30830;53.704;10.004;2023-03-01T16:46:31;4.80;99.90
45066;DHT22;30830;53.704;10.004;2023-03-01T16:48:56;4.80;99.90
45066;DHT22;30830;53.704;10.004;2023-03-01T16:51:23;4.70;99.90
45066;DHT22;30830;53.704;10.004;2023-03-01T16:53:50;4.60;99.90
45066;DHT22;30830;53.704;10.004;2023-03-01T16:56:17;4.60;99.90
45066;DHT22;30830;53.704;10.004;2023-03-01T16:58:43;4.50;99.90
45066;DHT22;30830;53.704;10.004;2023-03-01T17:01:14;4.40;99.90
45066;DHT22;30830;53.704;10.004;2023-03-01T17:03:41;4.40;99.90
45066;DHT22;30830;53.704;10.004;2023-03-01T17:06:09;4.30;99.90
45066;DHT22;30830;53.704;10.004;2023-03-01T17:08:36;4.20;99.90
45066;DHT22;30830;53.704;10.004;2023-03-01T17:11:10;4.20;99.90
45066;DHT22;30830;53.704;10.004;2023-03-01T17:13:38;4.10;99.90
45066;DHT22;30830;53.704;10.004;2023-03-01T17:16:05;4.10;99.90
45066;DHT22;30830;53.704;10.004;2023-03-01T17:18:33;4.00;99.90
45066;DHT22;30830;53.704;10.004;2023-03-01T17:20:59;3.90;99.90
45066;DHT22;30830;53.704;10.004;2023-03-01T17:23:26;3.80;99.90
45066;DHT22;30830;53.704;10.004;2023-03-01T17:25:52;3.70;99.90
45066;DHT22;30830;53.704;10.004;2023-03-01T17:28:24;3.60;99.90
45066;DHT22;30830;53.704;10.004;2023-03-01T17:30:49;3.40;99.90
45066;DHT22;30830;53.704;10.004;2023-03-01T17:33:15;3.30;99.90
45066;DHT22;30830;53.704;10.004;2023-03-01T17:35:41;3.00;99.90